Time;durP1;ratioP1;P1;durP2;ratioP2;P2;SDS_P1;SDS_P2;PMS_P1;PMS_P2;Temp;Humidity;BMP_temperature;BMP_pressure;BME280_temperature;BME280_humidity;BME280_pressure;Samples;Min_cycle;Max_cycle;Signal;HPM_P1;HPM_P2
2023/09/10 00:01:46;;;;;;;;;;;;;;;16.46;48.15;95821.50;4994680;28;19940;-71
2023/09/10 00:04:11;;;;;;;;;;;;;;;16.45;48.35;95823.38;4994948;28;19961;-71
2023/09/10 00:06:36;;;;;;;;;;;;;;;16.45;47.94;95822.56;4998466;28;20013;-71
2023/09/10 00:09:03;;;;;;;;;;;;;;;16.44;48.00;95824.41;4994905;28;20085;-72
2023/09/10 00:11:28;;;;;;;;;;;;;;;16.43;48.47;95819.25;4993599;28;19971;-71
2023/09/10 00:13:53;;;;;;;;;;;;;;;16.42;48.53;95815.72;4994985;28;19945;-72
2023/09/10 00:16:19;;;;;;;;;;;;;;;16.41;48.60;95816.75;4990789;28;19999;-71
2023/09/10 00:18:44;;;;;;;;;;;;;;;16.37;48.71;95816.38;4994655;28;20305;-70
2023/09/10 00:21:09;;;;;;;;;;;;;;;16.35;48.46;95813.06;4996563;28;19961;-72
2023/09/10 00:23:34;;;;;;;;;;;;;;;16.30;48.31;95812.84;4994432;28;20412;-69
2023/09/10 00:26:00;;;;;;;;;;;;;;;16.30;48.53;95817.38;4991663;28;20109;-72
2023/09/10 00:28:25;;;;;;;;;;;;;;;16.29;48.56;95815.72;4994742;28;19960;-71
2023/09/10 00:30:53;;;;;;;;;;;;;;;16.25;48.34;95818.03;4992371;28;20037;-70
2023/09/10 00:33:19;;;;;;;;;;;;;;;16.20;48.16;95815.13;4990514;28;20024;-71
2023/09/10 00:35:44;;;;;;;;;;;;;;;16.22;48.34;95813.88;4993196;28;20417;-71
2023/09/10 00:38:09;;;;;;;;;;;;;;;16.24;48.19;95811.81;4995412;28;19929;-71
2023/09/10 00:40:34;;;;;;;;;;;;;;;16.23;48.45;95809.34;4993585;28;19969;-70
2023/09/10 00:43:00;;;;;;;;;;;;;;;16.22;48.41;95808.50;4994300;28;20075;-71
2023/09/10 00:45:25;;;;;;;;;;;;;;;16.23;48.39;95807.47;4994927;28;20333;-71
2023/09/10 00:47:50;;;;;;;;;;;;;;;16.27;48.33;95799.81;4994447;28;20054;-71
2023/09/10 00:50:15;;;;;;;;;;;;;;;16.29;48.35;95802.31;4991276;28;20366;-71
2023/09/10 00:52:41;;;;;;;;;;;;;;;16.32;48.35;95800.00;4994837;28;20023;-71
2023/09/10 00:55:06;;;;;;;;;;;;;;;16.32;48.38;95797.31;4990613;28;19929;-71
2023/09/10 00:57:31;;;;;;;;;;;;;;;16.34;48.23;95800.63;4994951;28;20174;-70
2023/09/10 00:59:57;;;;;;;;;;;;;;;16.35;48.23;95809.56;4990102;28;19932;-71
2023/09/10 01:02:22;;;;;;;;;;;;;;;16.35;48.42;95812.25;4994657;28;19950;-71
2023/09/10 01:04:47;;;;;;;;;;;;;;;16.32;48.17;95801.88;4995709;28;19928;-71
2023/09/10 01:07:12;;;;;;;;;;;;;;;16.30;48.63;95804.78;4993598;28;19961;-71
2023/09/10 01:09:37;;;;;;;;;;;;;;;16.25;48.39;95807.28;4986175;28;20169;-71
2023/09/10 01:12:09;;;;;;;;;;;;;;;16.21;48.52;95811.38;4994185;28;20805;-71
2023/09/10 01:14:36;;;;;;;;;;;;;;;16.16;48.89;95803.16;4991607;28;20118;-71
2023/09/10 01:17:28;;;;;;;;;;;;;;;16.10;48.41;95802.97;4992482;28;20025;-71
2023/09/10 01:20:12;;;;;;;;;;;;;;;16.06;48.56;95804.41;4990972;28;19926;-71
2023/09/10 01:22:45;;;;;;;;;;;;;;;16.04;48.67;95811.03;4995227;28;20314;-71
2023/09/10 01:25:10;;;;;;;;;;;;;;;16.00;48.82;95803.38;4988856;28;20311;-71
2023/09/10 01:27:35;;;;;;;;;;;;;;;15.99;48.79;95803.59;4992220;28;19932;-70
2023/09/10 01:30:01;;;;;;;;;;;;;;;15.98;48.65;95807.31;4989704;28;20310;-70
2023/09/10 01:32:28;;;;;;;;;;;;;;;15.93;48.21;95805.25;4992992;28;20047;-72
2023/09/10 01:34:55;;;;;;;;;;;;;;;15.93;48.91;95804.41;4988088;28;19936;-71
2023/09/10 01:37:39;;;;;;;;;;;;;;;15.91;48.97;95801.94;4994435;28;19981;-71
2023/09/10 01:40:06;;;;;;;;;;;;;;;15.91;49.20;95791.19;4984760;28;20415;-71
2023/09/10 01:42:31;;;;;;;;;;;;;;;15.90;49.15;95794.91;4994228;28;19944;-71
2023/09/10 01:44:56;;;;;;;;;;;;;;;15.92;48.58;95800.06;4992125;28;19983;-71
2023/09/10 01:47:21;;;;;;;;;;;;;;;15.88;48.21;95797.00;4991690;28;20018;-71
2023/09/10 01:49:47;;;;;;;;;;;;;;;15.86;48.64;95793.69;4991986;28;19981;-71
2023/09/10 01:52:12;;;;;;;;;;;;;;;15.84;48.78;95796.56;4991847;28;19929;-71
2023/09/10 01:54:37;;;;;;;;;;;;;;;15.84;48.81;95793.09;4993746;28;19987;-71
2023/09/10 01:57:03;;;;;;;;;;;;;;;15.82;48.95;95789.75;4994354;28;20602;-71
2023/09/10 01:59:28;;;;;;;;;;;;;;;15.83;48.67;95797.63;4993106;28;20321;-71
2023/09/10 02:01:53;;;;;;;;;;;;;;;15.83;49.07;95796.78;4992472;28;19958;-71
2023/09/10 02:04:18;;;;;;;;;;;;;;;15.79;48.63;95800.91;4993483;28;20056;-70
2023/09/10 02:06:43;;;;;;;;;;;;;;;15.77;48.82;95803.78;4995345;28;20533;-71
2023/09/10 02:09:09;;;;;;;;;;;;;;;15.77;49.11;95795.75;4993276;28;20360;-70
2023/09/10 02:11:34;;;;;;;;;;;;;;;15.74;48.92;95802.34;4986465;28;19968;-71
2023/09/10 02:14:00;;;;;;;;;;;;;;;15.73;48.77;95803.41;4993574;28;19947;-71
2023/09/10 02:16:25;;;;;;;;;;;;;;;15.72;48.78;95803.59;4988736;28;20317;-72
2023/09/10 02:18:50;;;;;;;;;;;;;;;15.69;48.86;95799.47;4992392;28;20314;-71
2023/09/10 02:21:15;;;;;;;;;;;;;;;15.72;48.96;95799.06;4997165;28;20435;-71
2023/09/10 02:23:44;;;;;;;;;;;;;;;15.72;48.56;95800.91;4992964;28;20678;-71
2023/09/10 02:26:09;;;;;;;;;;;;;;;15.70;48.73;95800.28;4993193;28;19948;-71
2023/09/10 02:28:34;;;;;;;;;;;;;;;15.70;48.71;95798.44;4992692;28;20372;-71
2023/09/10 02:31:03;;;;;;;;;;;;;;;15.70;48.75;95805.66;4989898;28;20243;-71
2023/09/10 02:33:28;;;;;;;;;;;;;;;15.72;48.96;95801.75;4993087;28;19932;-71
2023/09/10 02:35:54;;;;;;;;;;;;;;;15.69;48.61;95804.84;4991600;28;20318;-71
2023/09/10 02:38:19;;;;;;;;;;;;;;;15.70;49.00;95801.13;4993217;28;20456;-71
2023/09/10 02:40:44;;;;;;;;;;;;;;;15.68;49.06;95807.72;4992309;28;19985;-70
2023/09/10 02:43:09;;;;;;;;;;;;;;;15.68;49.13;95803.19;4993043;28;19958;-70
2023/09/10 02:45:35;;;;;;;;;;;;;;;15.66;49.10;95805.25;4993109;28;19994;-70
2023/09/10 02:48:00;;;;;;;;;;;;;;;15.67;49.03;95800.72;4993041;28;20034;-70
2023/09/10 02:50:25;;;;;;;;;;;;;;;15.65;48.78;95802.78;4991694;28;19949;-72
2023/09/10 02:52:50;;;;;;;;;;;;;;;15.64;49.03;95796.59;4993540;28;20634;-72
2023/09/10 02:55:16;;;;;;;;;;;;;;;15.59;49.07;95805.25;4990736;28;19956;-69
2023/09/10 02:57:42;;;;;;;;;;;;;;;15.57;49.56;95803.81;4991937;28;20400;-71
2023/09/10 03:00:07;;;;;;;;;;;;;;;15.52;49.35;95801.69;4991407;28;19970;-70
2023/09/10 03:02:32;;;;;;;;;;;;;;;15.54;49.16;95810.34;4993351;28;20144;-71
2023/09/10 03:04:58;;;;;;;;;;;;;;;15.54;49.17;95801.50;4994877;28;20249;-72
2023/09/10 03:07:23;;;;;;;;;;;;;;;15.51;49.26;95797.38;4990471;28;19975;-70
2023/09/10 03:09:51;;;;;;;;;;;;;;;15.46;49.53;95800.66;4992118;28;20033;-72
2023/09/10 03:12:20;;;;;;;;;;;;;;;15.43;49.09;95790.34;4990969;28;20800;-69
2023/09/10 03:14:45;;;;;;;;;;;;;;;15.42;49.50;95803.94;4992870;28;20569;-71
2023/09/10 03:17:11;;;;;;;;;;;;;;;15.41;49.58;95797.78;4991664;28;20034;-72
2023/09/10 03:19:37;;;;;;;;;;;;;;;15.38;49.73;95798.19;4992151;28;19959;-72
2023/09/10 03:22:02;;;;;;;;;;;;;;;15.36;49.53;95800.22;4994001;28;19944;-69
2023/09/10 03:24:28;;;;;;;;;;;;;;;15.33;49.63;95796.09;4993501;28;19986;-67
2023/09/10 03:26:53;;;;;;;;;;;;;;;15.29;49.47;95794.03;4993169;28;19996;-68
2023/09/10 03:29:18;;;;;;;;;;;;;;;15.25;49.89;95788.25;4992947;28;19986;-69
2023/09/10 03:31:43;;;;;;;;;;;;;;;15.29;49.91;95794.03;4992595;28;20352;-69
2023/09/10 03:34:08;;;;;;;;;;;;;;;15.28;49.86;95792.38;4996579;28;19986;-69
2023/09/10 03:36:34;;;;;;;;;;;;;;;15.29;49.97;95799.38;4991986;28;20020;-69
2023/09/10 03:38:59;;;;;;;;;;;;;;;15.30;49.92;95798.38;4996493;28;19994;-69
2023/09/10 03:41:24;;;;;;;;;;;;;;;15.35;50.11;95798.59;4993164;28;19996;-68
2023/09/10 03:43:50;;;;;;;;;;;;;;;15.41;50.03;95799.63;4996230;28;19996;-71
2023/09/10 03:46:15;;;;;;;;;;;;;;;15.43;50.01;95801.06;4993758;28;20437;-72
2023/09/10 03:48:41;;;;;;;;;;;;;;;15.46;49.73;95791.78;4996307;28;20589;-72
2023/09/10 03:51:06;;;;;;;;;;;;;;;15.48;49.84;95793.25;4993801;28;20388;-69
2023/09/10 03:53:31;;;;;;;;;;;;;;;15.53;49.79;95799.84;4997123;28;19935;-69
2023/09/10 03:55:56;;;;;;;;;;;;;;;15.51;49.56;95796.53;4994927;28;20144;-72
2023/09/10 03:58:22;;;;;;;;;;;;;;;15.50;49.71;95795.69;4996285;28;20438;-72
2023/09/10 04:00:47;;;;;;;;;;;;;;;15.48;49.56;95793.25;4996402;28;20125;-73
2023/09/10 04:03:12;;;;;;;;;;;;;;;15.46;49.64;95797.97;4997631;28;20054;-73
2023/09/10 04:05:37;;;;;;;;;;;;;;;15.42;49.28;95796.75;4994653;28;20721;-70
2023/09/10 04:08:03;;;;;;;;;;;;;;;15.41;49.32;95799.63;4994665;28;20507;-71
2023/09/10 04:10:28;;;;;;;;;;;;;;;15.39;48.95;95810.56;4993356;28;19955;-74
2023/09/10 04:12:53;;;;;;;;;;;;;;;15.39;48.83;95801.66;4989127;28;20105;-72
2023/09/10 04:15:19;;;;;;;;;;;;;;;15.37;49.46;95807.28;4995263;28;20069;-72
2023/09/10 04:17:44;;;;;;;;;;;;;;;15.34;49.17;95807.66;4991260;28;20028;-74
2023/09/10 04:20:09;;;;;;;;;;;;;;;15.31;49.49;95800.03;4996358;28;20008;-72
2023/09/10 04:22:35;;;;;;;;;;;;;;;15.28;49.51;95803.09;4992697;28;19967;-73
2023/09/10 04:25:00;;;;;;;;;;;;;;;15.25;49.55;95798.97;4996219;28;20120;-77
2023/09/10 04:27:25;;;;;;;;;;;;;;;15.21;49.15;95797.75;4992801;28;20514;-70
2023/09/10 04:29:52;;;;;;;;;;;;;;;15.17;49.78;95802.69;4995184;28;19940;-75
2023/09/10 04:32:18;;;;;;;;;;;;;;;15.13;49.71;95809.47;4995726;28;20210;-74
2023/09/10 04:34:43;;;;;;;;;;;;;;;15.14;49.88;95807.63;4995496;28;19942;-73
2023/09/10 04:37:08;;;;;;;;;;;;;;;15.12;49.78;95804.31;4989381;28;19953;-71
2023/09/10 04:39:33;;;;;;;;;;;;;;;15.09;49.94;95805.53;4995691;28;19974;-71
2023/09/10 04:41:59;;;;;;;;;;;;;;;15.05;49.92;95813.16;4990459;28;19951;-71
2023/09/10 04:44:24;;;;;;;;;;;;;;;15.05;50.30;95809.66;4993844;28;19999;-72
2023/09/10 04:46:49;;;;;;;;;;;;;;;15.07;50.37;95808.44;4991149;28;20446;-71
2023/09/10 04:49:15;;;;;;;;;;;;;;;15.10;50.30;95812.56;4995531;28;19987;-74
2023/09/10 04:51:40;;;;;;;;;;;;;;;15.12;50.24;95815.88;4996407;28;20008;-73
2023/09/10 04:54:05;;;;;;;;;;;;;;;15.14;50.45;95815.66;4994753;28;19980;-75
2023/09/10 04:56:30;;;;;;;;;;;;;;;15.14;50.38;95818.34;4994277;28;19999;-71
2023/09/10 04:58:56;;;;;;;;;;;;;;;15.16;50.34;95819.78;4994610;28;19944;-71
2023/09/10 05:01:21;;;;;;;;;;;;;;;15.18;50.16;95815.06;4992260;28;19978;-73
2023/09/10 05:03:46;;;;;;;;;;;;;;;15.17;50.13;95818.78;4994859;28;20020;-72
2023/09/10 05:06:13;;;;;;;;;;;;;;;15.17;49.95;95815.25;4994237;28;19958;-71
2023/09/10 05:08:38;;;;;;;;;;;;;;;15.17;49.97;95818.78;4993021;28;19960;-71
2023/09/10 05:11:03;;;;;;;;;;;;;;;15.18;50.22;95828.47;4984319;28;20607;-71
2023/09/10 05:13:29;;;;;;;;;;;;;;;15.18;49.91;95825.78;4986823;28;19984;-71
2023/09/10 05:15:54;;;;;;;;;;;;;;;15.22;49.84;95820.84;4983167;28;20053;-71
2023/09/10 05:18:20;;;;;;;;;;;;;;;15.26;49.87;95821.28;4986849;28;20113;-70
2023/09/10 05:20:46;;;;;;;;;;;;;;;15.29;49.62;95826.22;4988138;28;20368;-71
2023/09/10 05:23:12;;;;;;;;;;;;;;;15.32;49.52;95832.00;4984972;28;19955;-71
2023/09/10 05:25:37;;;;;;;;;;;;;;;15.37;49.28;95834.09;4980556;28;20109;-71
2023/09/10 05:28:03;;;;;;;;;;;;;;;15.41;49.01;95845.22;4981953;28;19955;-71
2023/09/10 05:30:28;;;;;;;;;;;;;;;15.43;49.22;95835.94;4985623;28;19955;-71
2023/09/10 05:32:54;;;;;;;;;;;;;;;15.45;49.06;95836.56;4983278;28;20514;-71
2023/09/10 05:35:19;;;;;;;;;;;;;;;15.51;49.12;95834.94;4980940;28;20430;-71
2023/09/10 05:37:44;;;;;;;;;;;;;;;15.56;49.08;95832.50;4985674;28;20292;-70
2023/09/10 05:40:10;;;;;;;;;;;;;;;15.61;48.71;95830.00;4985125;28;20088;-71
2023/09/10 05:42:35;;;;;;;;;;;;;;;15.67;48.73;95830.25;4990638;28;19976;-71
2023/09/10 05:45:00;;;;;;;;;;;;;;;15.74;48.52;95831.06;4994160;28;20002;-71
2023/09/10 05:47:26;;;;;;;;;;;;;;;15.83;48.30;95837.03;4993199;28;19925;-71
2023/09/10 05:49:51;;;;;;;;;;;;;;;15.90;48.33;95837.88;4995776;28;19917;-71
2023/09/10 05:52:16;;;;;;;;;;;;;;;15.98;48.21;95831.47;4994858;28;20631;-71
2023/09/10 05:54:41;;;;;;;;;;;;;;;16.07;48.37;95834.75;4994222;28;19921;-70
2023/09/10 05:57:07;;;;;;;;;;;;;;;16.19;47.90;95840.34;4991835;28;19925;-70
2023/09/10 05:59:32;;;;;;;;;;;;;;;16.30;47.45;95841.56;4993548;28;20071;-71
2023/09/10 06:01:57;;;;;;;;;;;;;;;16.43;47.96;95840.72;4993300;28;19926;-71
2023/09/10 06:04:22;;;;;;;;;;;;;;;16.58;47.41;95837.78;4993853;28;19930;-71
2023/09/10 06:06:48;;;;;;;;;;;;;;;16.73;47.35;95833.00;4991230;28;19966;-71
2023/09/10 06:09:13;;;;;;;;;;;;;;;16.88;47.00;95834.59;4993740;28;20296;-71
2023/09/10 06:11:38;;;;;;;;;;;;;;;17.04;46.53;95846.75;4988771;28;20083;-71
2023/09/10 06:14:03;;;;;;;;;;;;;;;17.19;46.72;95845.66;4993978;28;19968;-72
2023/09/10 06:16:29;;;;;;;;;;;;;;;17.33;45.91;95839.16;4991536;28;20539;-70
2023/09/10 06:18:54;;;;;;;;;;;;;;;17.48;45.19;95844.28;4994003;28;19967;-73
2023/09/10 06:21:20;;;;;;;;;;;;;;;17.62;45.18;95841.47;4994654;28;19965;-71
2023/09/10 06:23:45;;;;;;;;;;;;;;;17.75;44.95;95841.38;4994179;28;20241;-69
2023/09/10 06:26:10;;;;;;;;;;;;;;;17.88;46.10;95842.34;4992368;28;19934;-71
2023/09/10 06:28:35;;;;;;;;;;;;;;;18.01;45.52;95841.41;4991559;28;20164;-72
2023/09/10 06:31:01;;;;;;;;;;;;;;;18.15;45.51;95847.53;4991935;28;20281;-74
2023/09/10 06:33:26;;;;;;;;;;;;;;;18.28;44.96;95850.09;4994598;28;19961;-73
2023/09/10 06:35:51;;;;;;;;;;;;;;;18.46;44.86;95851.13;4993802;28;19998;-72
2023/09/10 06:38:17;;;;;;;;;;;;;;;18.65;44.86;95851.19;4987896;28;19921;-74
2023/09/10 06:40:42;;;;;;;;;;;;;;;18.79;44.80;95847.31;4992104;28;20251;-73
2023/09/10 06:43:09;;;;;;;;;;;;;;;18.93;44.72;95855.22;4987819;28;19965;-73
2023/09/10 06:45:34;;;;;;;;;;;;;;;19.10;44.36;95849.22;4992246;28;19925;-72
2023/09/10 06:48:00;;;;;;;;;;;;;;;19.26;43.62;95848.59;4989738;28;19926;-71
2023/09/10 06:50:25;;;;;;;;;;;;;;;19.45;44.52;95845.88;4994515;28;20023;-71
2023/09/10 06:52:50;;;;;;;;;;;;;;;19.65;44.03;95853.66;4991588;28;20402;-71
2023/09/10 06:55:16;;;;;;;;;;;;;;;19.85;44.42;95853.38;4993068;28;20360;-71
2023/09/10 06:57:42;;;;;;;;;;;;;;;20.06;43.96;95856.59;4988380;28;19926;-71
2023/09/10 07:00:07;;;;;;;;;;;;;;;20.30;43.63;95848.53;4991757;28;19921;-71
2023/09/10 07:02:32;;;;;;;;;;;;;;;20.54;43.40;95851.22;4983625;28;20398;-73
2023/09/10 07:04:58;;;;;;;;;;;;;;;20.77;44.68;95849.53;4983086;28;19933;-73
2023/09/10 07:07:23;;;;;;;;;;;;;;;21.02;45.06;95848.44;4986679;28;20414;-70
2023/09/10 07:09:48;;;;;;;;;;;;;;;21.27;42.86;95849.19;4983668;28;20599;-72
2023/09/10 07:12:13;;;;;;;;;;;;;;;21.50;42.99;95851.81;4986460;28;20272;-72
2023/09/10 07:14:39;;;;;;;;;;;;;;;21.72;42.28;95863.84;4986759;28;19929;-74
2023/09/10 07:17:05;;;;;;;;;;;;;;;21.92;41.85;95857.16;4989798;28;20091;-72
2023/09/10 07:19:30;;;;;;;;;;;;;;;22.12;41.34;95854.78;4984272;28;20428;-72
2023/09/10 07:21:56;;;;;;;;;;;;;;;22.30;40.13;95858.31;4985182;28;19925;-73
2023/09/10 07:24:21;;;;;;;;;;;;;;;22.54;39.15;95863.56;4983087;28;19968;-70
2023/09/10 07:26:46;;;;;;;;;;;;;;;22.76;38.35;95873.59;4984220;28;20115;-72
2023/09/10 07:29:16;;;;;;;;;;;;;;;22.98;38.60;95870.09;4983627;28;19989;-71
2023/09/10 07:31:41;;;;;;;;;;;;;;;23.05;39.94;95868.81;4987813;28;19960;-72
2023/09/10 07:34:06;;;;;;;;;;;;;;;23.25;38.34;95870.16;4989616;28;20035;-70
2023/09/10 07:36:31;;;;;;;;;;;;;;;23.51;37.70;95875.88;4987302;28;19962;-72
2023/09/10 07:38:56;;;;;;;;;;;;;;;23.66;37.68;95871.69;4983906;28;19996;-72
2023/09/10 07:41:22;;;;;;;;;;;;;;;23.73;36.98;95876.91;4986056;28;20015;-72
2023/09/10 07:43:47;;;;;;;;;;;;;;;23.85;37.15;95877.59;4995560;28;19983;-71
2023/09/10 07:46:12;;;;;;;;;;;;;;;23.87;35.98;95872.75;4996081;28;20163;-72
2023/09/10 07:48:38;;;;;;;;;;;;;;;24.00;35.15;95876.09;4995507;28;19969;-71
2023/09/10 07:51:03;;;;;;;;;;;;;;;23.98;33.92;95878.25;4997235;28;19953;-72
2023/09/10 07:53:28;;;;;;;;;;;;;;;23.80;32.91;95877.56;4996670;28;19921;-71
2023/09/10 07:55:56;;;;;;;;;;;;;;;23.79;32.26;95873.19;4995786;28;20797;-71
2023/09/10 07:58:21;;;;;;;;;;;;;;;23.56;32.12;95872.41;4989900;28;20697;-71
2023/09/10 08:00:46;;;;;;;;;;;;;;;23.45;32.48;95885.06;4996166;28;20148;-70
2023/09/10 08:03:14;;;;;;;;;;;;;;;23.85;32.94;95880.31;4989033;28;20445;-72
2023/09/10 08:05:39;;;;;;;;;;;;;;;24.04;31.86;95886.19;4994365;28;19932;-72
2023/09/10 08:08:04;;;;;;;;;;;;;;;24.39;31.67;95885.94;4989848;28;19949;-72
2023/09/10 08:10:30;;;;;;;;;;;;;;;24.20;33.13;95891.75;4983730;28;19922;-72
2023/09/10 08:12:55;;;;;;;;;;;;;;;24.27;32.50;95895.06;4983717;28;20052;-71
2023/09/10 08:15:20;;;;;;;;;;;;;;;24.38;31.97;95887.03;4981966;28;20160;-72
2023/09/10 08:17:45;;;;;;;;;;;;;;;24.53;32.85;95899.91;4981452;28;20461;-71
2023/09/10 08:20:11;;;;;;;;;;;;;;;24.51;32.50;95894.72;4983087;28;20310;-72
2023/09/10 08:22:37;;;;;;;;;;;;;;;24.66;32.50;95891.31;4985449;28;19955;-72
2023/09/10 08:25:04;;;;;;;;;;;;;;;24.80;32.71;95890.81;4984813;28;20197;-72
2023/09/10 08:27:29;;;;;;;;;;;;;;;25.24;31.88;95891.59;4981232;28;19965;-72
2023/09/10 08:29:54;;;;;;;;;;;;;;;25.50;32.12;95889.00;4983033;28;20056;-72
2023/09/10 08:32:20;;;;;;;;;;;;;;;25.27;33.63;95891.06;4982801;28;19975;-72
2023/09/10 08:34:45;;;;;;;;;;;;;;;25.02;33.51;95900.78;4987831;28;19925;-72
2023/09/10 08:37:11;;;;;;;;;;;;;;;25.21;32.38;95893.78;4983456;28;20458;-69
2023/09/10 08:39:36;;;;;;;;;;;;;;;25.04;33.85;95899.41;4980995;28;19921;-72
2023/09/10 08:42:05;;;;;;;;;;;;;;;24.67;33.43;95892.09;4985659;28;19925;-71
2023/09/10 08:44:30;;;;;;;;;;;;;;;24.52;34.63;95892.84;4988253;28;19921;-70
2023/09/10 08:46:56;;;;;;;;;;;;;;;24.50;34.27;95895.00;4981375;28;19949;-71
2023/09/10 08:49:22;;;;;;;;;;;;;;;24.47;33.71;95893.59;4987432;28;19987;-71
2023/09/10 08:51:47;;;;;;;;;;;;;;;24.79;33.18;95891.91;4994607;28;19929;-71
2023/09/10 08:54:12;;;;;;;;;;;;;;;24.86;32.74;95892.50;4992090;28;20618;-72
2023/09/10 08:56:38;;;;;;;;;;;;;;;24.73;34.13;95896.50;4994712;28;20215;-71
2023/09/10 08:59:03;;;;;;;;;;;;;;;25.06;32.68;95893.72;4989748;28;19948;-72
2023/09/10 09:01:28;;;;;;;;;;;;;;;25.21;32.29;95882.06;4994842;28;19929;-71
2023/09/10 09:03:54;;;;;;;;;;;;;;;25.67;30.83;95889.59;4991275;28;19930;-72
2023/09/10 09:06:19;;;;;;;;;;;;;;;25.98;31.57;95889.63;4997861;28;19979;-72
2023/09/10 09:08:51;;;;;;;;;;;;;;;26.02;30.08;95884.47;4990746;28;20039;-72
2023/09/10 09:11:16;;;;;;;;;;;;;;;25.90;30.70;95886.63;4988594;28;20252;-71
2023/09/10 09:13:42;;;;;;;;;;;;;;;26.22;30.90;95885.56;4992421;28;20421;-72
2023/09/10 09:16:08;;;;;;;;;;;;;;;26.60;29.21;95880.63;4993314;28;20007;-72
2023/09/10 09:18:36;;;;;;;;;;;;;;;26.69;28.96;95880.06;4992266;28;19925;-71
2023/09/10 09:21:20;;;;;;;;;;;;;;;26.85;28.64;95886.31;4995339;28;19935;-71
2023/09/10 09:23:46;;;;;;;;;;;;;;;27.30;28.01;95888.34;4984171;28;20038;-72
2023/09/10 09:26:12;;;;;;;;;;;;;;;27.63;27.62;95884.09;4993502;28;20086;-70
2023/09/10 09:28:37;;;;;;;;;;;;;;;27.91;29.51;95891.84;4989917;28;19925;-70
2023/09/10 09:31:06;;;;;;;;;;;;;;;28.23;27.81;95887.81;4992345;28;19978;-72
2023/09/10 09:33:31;;;;;;;;;;;;;;;28.47;26.71;95892.53;4991939;28;19921;-70
2023/09/10 09:36:04;;;;;;;;;;;;;;;28.34;27.32;95882.25;4992341;28;19933;-72
2023/09/10 09:38:29;;;;;;;;;;;;;;;28.37;26.65;95881.66;4991065;28;19921;-72
2023/09/10 09:40:54;;;;;;;;;;;;;;;28.30;26.94;95882.00;4993964;28;20028;-72
2023/09/10 09:43:20;;;;;;;;;;;;;;;28.83;26.57;95882.34;4993553;28;20059;-70
2023/09/10 09:45:45;;;;;;;;;;;;;;;28.85;26.69;95878.19;4992752;28;19948;-72
2023/09/10 09:48:10;;;;;;;;;;;;;;;28.41;26.24;95882.72;4993084;28;20329;-74
2023/09/10 09:50:36;;;;;;;;;;;;;;;28.30;25.29;95878.47;4993249;28;19918;-72
2023/09/10 09:53:01;;;;;;;;;;;;;;;28.14;27.83;95879.34;4991648;28;19976;-71
2023/09/10 09:55:26;;;;;;;;;;;;;;;27.86;27.26;95875.47;4993661;28;19922;-75
2023/09/10 09:57:51;;;;;;;;;;;;;;;28.24;27.19;95878.47;4989259;28;20486;-68
2023/09/10 10:00:17;;;;;;;;;;;;;;;28.45;25.40;95869.28;4993470;28;19993;-69
2023/09/10 10:02:42;;;;;;;;;;;;;;;28.10;25.68;95864.63;4989369;28;19930;-68
2023/09/10 10:05:08;;;;;;;;;;;;;;;28.16;26.31;95870.91;4995496;28;19929;-69
2023/09/10 10:07:36;;;;;;;;;;;;;;;28.49;26.12;95873.91;4992313;28;20374;-69
2023/09/10 10:10:01;;;;;;;;;;;;;;;28.97;24.41;95871.50;4991808;28;19921;-69
2023/09/10 10:12:27;;;;;;;;;;;;;;;29.03;25.21;95868.38;4983641;28;19952;-68
2023/09/10 10:14:52;;;;;;;;;;;;;;;28.57;25.99;95861.47;4981602;28;20179;-72
2023/09/10 10:17:17;;;;;;;;;;;;;;;28.50;24.36;95858.28;4987519;28;20425;-72
2023/09/10 10:19:42;;;;;;;;;;;;;;;28.51;24.66;95855.25;4991586;28;20331;-68
2023/09/10 10:22:08;;;;;;;;;;;;;;;28.78;25.54;95853.06;4985896;28;20286;-70
2023/09/10 10:24:33;;;;;;;;;;;;;;;29.24;25.72;95859.97;4980329;28;19933;-71
2023/09/10 10:26:58;;;;;;;;;;;;;;;28.72;26.42;95855.03;4980846;28;20393;-72
2023/09/10 10:29:24;;;;;;;;;;;;;;;28.44;25.06;95848.50;4975624;28;20613;-67
2023/09/10 10:31:51;;;;;;;;;;;;;;;28.59;25.34;95855.72;4986815;28;19928;-70
2023/09/10 10:34:21;;;;;;;;;;;;;;;28.19;27.27;95847.63;4980527;28;20283;-69
2023/09/10 10:37:05;;;;;;;;;;;;;;;27.98;28.28;95848.59;4982151;28;19921;-69
2023/09/10 10:39:38;;;;;;;;;;;;;;;27.80;26.83;95846.53;4983528;28;20442;-71
2023/09/10 10:42:03;;;;;;;;;;;;;;;28.10;25.86;95839.16;4978903;28;20187;-70
2023/09/10 10:44:35;;;;;;;;;;;;;;;27.99;25.48;95836.53;4986096;28;20001;-68
2023/09/10 10:47:02;;;;;;;;;;;;;;;28.53;25.11;95835.78;4982269;28;19943;-69
2023/09/10 10:49:28;;;;;;;;;;;;;;;28.83;25.30;95842.06;4990178;28;19921;-71
2023/09/10 10:51:54;;;;;;;;;;;;;;;29.33;24.08;95834.63;4996031;28;19937;-70
2023/09/10 10:54:19;;;;;;;;;;;;;;;29.42;23.67;95830.09;4994950;28;20387;-72
2023/09/10 10:56:44;;;;;;;;;;;;;;;29.10;23.09;95831.59;4996660;28;19925;-72
2023/09/10 10:59:09;;;;;;;;;;;;;;;29.32;24.67;95830.25;4994450;28;20004;-70
2023/09/10 11:01:35;;;;;;;;;;;;;;;29.81;23.94;95834.47;4994531;28;20253;-71
2023/09/10 11:04:21;;;;;;;;;;;;;;;29.76;23.93;95837.31;4994626;28;19925;-71
2023/09/10 11:07:04;;;;;;;;;;;;;;;30.02;23.98;95827.84;4990730;28;20072;-71
2023/09/10 11:09:33;;;;;;;;;;;;;;;29.52;24.12;95832.69;4994217;28;20421;-68
2023/09/10 11:11:58;;;;;;;;;;;;;;;28.90;24.13;95828.84;4995585;28;20003;-69
2023/09/10 11:14:24;;;;;;;;;;;;;;;29.26;23.34;95826.78;4995422;28;19960;-69
2023/09/10 11:16:49;;;;;;;;;;;;;;;29.08;24.87;95825.59;4995916;28;19921;-68
2023/09/10 11:19:33;;;;;;;;;;;;;;;28.72;25.56;95824.91;4994376;28;20207;-68
2023/09/10 11:22:02;;;;;;;;;;;;;;;29.27;22.92;95825.66;5001666;28;19960;-68
2023/09/10 11:24:31;;;;;;;;;;;;;;;28.75;26.38;95823.56;4995907;28;19925;-68
2023/09/10 11:27:17;;;;;;;;;;;;;;;29.18;22.87;95823.59;4995892;28;19933;-68
2023/09/10 11:29:42;;;;;;;;;;;;;;;29.58;23.83;95825.22;4996508;28;20429;-68
2023/09/10 11:32:15;;;;;;;;;;;;;;;30.03;22.95;95811.09;4995735;28;19926;-66
2023/09/10 11:34:40;;;;;;;;;;;;;;;29.40;25.23;95824.13;4997461;28;20298;-66
2023/09/10 11:37:06;;;;;;;;;;;;;;;29.08;25.54;95822.84;4994821;28;19926;-66
2023/09/10 11:39:31;;;;;;;;;;;;;;;29.19;24.65;95824.38;4991723;28;19932;-67
2023/09/10 11:41:57;;;;;;;;;;;;;;;29.65;23.85;95825.66;4994018;28;20019;-67
2023/09/10 11:44:23;;;;;;;;;;;;;;;29.97;23.54;95815.03;4994542;28;19960;-68
2023/09/10 11:46:48;;;;;;;;;;;;;;;30.29;22.18;95813.44;4994416;28;20365;-67
2023/09/10 11:49:14;;;;;;;;;;;;;;;30.77;21.60;95819.69;4989913;28;20276;-67
2023/09/10 11:51:46;;;;;;;;;;;;;;;30.33;22.14;95811.69;4996894;28;20012;-67
2023/09/10 11:54:16;;;;;;;;;;;;;;;30.41;21.84;95817.59;4990932;28;20490;-67
2023/09/10 11:56:48;;;;;;;;;;;;;;;30.49;21.01;95814.16;4992998;28;19969;-67
2023/09/10 11:59:14;;;;;;;;;;;;;;;30.87;22.04;95817.84;4996087;28;20437;-67
2023/09/10 12:01:40;;;;;;;;;;;;;;;30.01;23.20;95812.50;4998380;28;19924;-67
2023/09/10 12:04:05;;;;;;;;;;;;;;;30.02;21.63;95812.22;4992552;28;20469;-67
2023/09/10 12:06:30;;;;;;;;;;;;;;;29.48;23.03;95819.88;4998602;28;19947;-67
2023/09/10 12:08:56;;;;;;;;;;;;;;;28.82;24.70;95814.97;4990523;28;20304;-67
2023/09/10 12:11:21;;;;;;;;;;;;;;;29.60;24.57;95814.75;4991141;28;20020;-67
2023/09/10 12:13:46;;;;;;;;;;;;;;;29.30;24.52;95805.88;4990508;28;19953;-68
2023/09/10 12:16:13;;;;;;;;;;;;;;;29.51;24.43;95809.16;4992871;28;19976;-67
2023/09/10 12:18:38;;;;;;;;;;;;;;;29.47;22.80;95813.59;4992083;28;20283;-67
2023/09/10 12:21:05;;;;;;;;;;;;;;;29.72;22.83;95803.38;4998294;28;19913;-68
2023/09/10 12:23:30;;;;;;;;;;;;;;;29.63;24.22;95805.94;4991142;28;20086;-66
2023/09/10 12:25:58;;;;;;;;;;;;;;;30.67;21.04;95806.97;4994329;28;20454;-67
2023/09/10 12:28:24;;;;;;;;;;;;;;;30.66;22.66;95802.56;4988817;28;20060;-68
2023/09/10 12:30:49;;;;;;;;;;;;;;;30.54;22.06;95800.31;4993871;28;20089;-68
2023/09/10 12:33:14;;;;;;;;;;;;;;;30.12;21.97;95799.41;4994453;28;20682;-67
2023/09/10 12:35:40;;;;;;;;;;;;;;;29.86;22.83;95797.09;4993196;28;19925;-67
2023/09/10 12:38:05;;;;;;;;;;;;;;;29.27;23.93;95804.53;4991729;28;19992;-68
2023/09/10 12:40:30;;;;;;;;;;;;;;;29.64;23.36;95791.09;4992331;28;19926;-68
2023/09/10 12:42:56;;;;;;;;;;;;;;;29.83;22.83;95789.50;4993649;28;19929;-69